sensor_id;sensor_type;location;lat;lon;timestamp;temperature;humidity
19878;DHT22;10101;52.204;9.910;2022-07-05T00:01:26;14.60;99.90
19878;DHT22;10101;52.204;9.910;2022-07-05T00:03:53;14.50;99.90
19878;DHT22;10101;52.204;9.910;2022-07-05T00:06:20;14.50;99.90
19878;DHT22;10101;52.204;9.910;2022-07-05T00:08:47;14.60;99.90
19878;DHT22;10101;52.204;9.910;2022-07-05T00:11:14;14.60;99.90
19878;DHT22;10101;52.204;9.910;2022-07-05T00:13:40;14.60;99.90
19878;DHT22;10101;52.204;9.910;2022-07-05T00:16:09;14.50;99.90
19878;DHT22;10101;52.204;9.910;2022-07-05T00:18:35;14.50;99.90
19878;DHT22;10101;52.204;9.910;2022-07-05T00:21:02;14.40;99.90
19878;DHT22;10101;52.204;9.910;2022-07-05T00:23:29;14.30;99.90
19878;DHT22;10101;52.204;9.910;2022-07-05T00:25:56;14.30;99.90
19878;DHT22;10101;52.204;9.910;2022-07-05T00:28:22;14.40;99.90
19878;DHT22;10101;52.204;9.910;2022-07-05T00:30:49;14.40;99.90
19878;DHT22;10101;52.204;9.910;2022-07-05T00:33:17;14.30;99.90
19878;DHT22;10101;52.204;9.910;2022-07-05T00:35:44;14.30;99.90
19878;DHT22;10101;52.204;9.910;2022-07-05T00:38:11;14.30;99.90
19878;DHT22;10101;52.204;9.910;2022-07-05T00:40:38;14.20;99.90
19878;DHT22;10101;52.204;9.910;2022-07-05T00:43:05;14.20;99.90
19878;DHT22;10101;52.204;9.910;2022-07-05T00:45:31;14.10;99.90
19878;DHT22;10101;52.204;9.910;2022-07-05T00:47:58;14.00;99.90
19878;DHT22;10101;52.204;9.910;2022-07-05T00:50:26;14.00;99.90
19878;DHT22;10101;52.204;9.910;2022-07-05T00:52:55;14.00;99.90
19878;DHT22;10101;52.204;9.910;2022-07-05T00:55:22;13.90;99.90
19878;DHT22;10101;52.204;9.910;2022-07-05T00:57:50;13.80;99.90
19878;DHT22;10101;52.204;9.910;2022-07-05T01:00:17;13.90;99.90
19878;DHT22;10101;52.204;9.910;2022-07-05T01:02:44;13.80;99.90
19878;DHT22;10101;52.204;9.910;2022-07-05T01:05:11;13.90;99.90
19878;DHT22;10101;52.204;9.910;2022-07-05T01:07:39;13.80;99.90
19878;DHT22;10101;52.204;9.910;2022-07-05T01:10:07;13.80;99.90
19878;DHT22;10101;52.204;9.910;2022-07-05T01:12:34;13.80;99.90
19878;DHT22;10101;52.204;9.910;2022-07-05T01:15:01;13.90;99.90
19878;DHT22;10101;52.204;9.910;2022-07-05T01:17:28;13.80;99.90
19878;DHT22;10101;52.204;9.910;2022-07-05T01:19:55;13.80;99.90
19878;DHT22;10101;52.204;9.910;2022-07-05T01:22:25;13.80;99.90
19878;DHT22;10101;52.204;9.910;2022-07-05T01:24:54;13.70;99.90
19878;DHT22;10101;52.204;9.910;2022-07-05T01:27:21;13.60;99.90
19878;DHT22;10101;52.204;9.910;2022-07-05T01:29:48;13.60;99.90
19878;DHT22;10101;52.204;9.910;2022-07-05T01:32:15;13.60;99.90
19878;DHT22;10101;52.204;9.910;2022-07-05T01:34:42;13.60;99.90
19878;DHT22;10101;52.204;9.910;2022-07-05T01:37:10;13.50;99.90
19878;DHT22;10101;52.204;9.910;2022-07-05T01:39:37;13.50;99.90
19878;DHT22;10101;52.204;9.910;2022-07-05T01:42:06;13.50;99.90
19878;DHT22;10101;52.204;9.910;2022-07-05T01:44:33;13.60;99.90
19878;DHT22;10101;52.204;9.910;2022-07-05T01:47:04;13.50;99.90
19878;DHT22;10101;52.204;9.910;2022-07-05T01:49:39;13.50;99.90
19878;DHT22;10101;52.204;9.910;2022-07-05T01:52:09;13.30;99.90
19878;DHT22;10101;52.204;9.910;2022-07-05T01:54:36;13.30;99.90
19878;DHT22;10101;52.204;9.910;2022-07-05T01:57:06;13.20;99.90
19878;DHT22;10101;52.204;9.910;2022-07-05T01:59:33;13.20;99.90
19878;DHT22;10101;52.204;9.910;2022-07-05T02:02:00;13.20;99.90
19878;DHT22;10101;52.204;9.910;2022-07-05T02:04:28;13.20;99.90
19878;DHT22;10101;52.204;9.910;2022-07-05T02:06:56;13.20;99.90
19878;DHT22;10101;52.204;9.910;2022-07-05T02:09:23;13.20;99.90
19878;DHT22;10101;52.204;9.910;2022-07-05T02:11:49;13.20;99.90
19878;DHT22;10101;52.204;9.910;2022-07-05T02:14:18;13.10;99.90
19878;DHT22;10101;52.204;9.910;2022-07-05T02:16:44;13.00;99.90
19878;DHT22;10101;52.204;9.910;2022-07-05T02:19:11;12.90;99.90
19878;DHT22;10101;52.204;9.910;2022-07-05T02:21:38;12.90;99.90
19878;DHT22;10101;52.204;9.910;2022-07-05T02:24:06;12.80;99.90
19878;DHT22;10101;52.204;9.910;2022-07-05T02:26:33;12.70;99.90
19878;DHT22;10101;52.204;9.910;2022-07-05T02:29:01;12.60;99.90
19878;DHT22;10101;52.204;9.910;2022-07-05T02:31:29;12.60;99.90
19878;DHT22;10101;52.204;9.910;2022-07-05T02:33:56;12.50;99.90
19878;DHT22;10101;52.204;9.910;2022-07-05T02:36:23;12.60;99.90
19878;DHT22;10101;52.204;9.910;2022-07-05T02:38:50;12.50;99.90
19878;DHT22;10101;52.204;9.910;2022-07-05T02:41:17;12.50;99.90
19878;DHT22;10101;52.204;9.910;2022-07-05T02:43:44;12.80;99.90
19878;DHT22;10101;52.204;9.910;2022-07-05T02:46:11;12.50;99.90
19878;DHT22;10101;52.204;9.910;2022-07-05T02:48:39;12.20;99.90
19878;DHT22;10101;52.204;9.910;2022-07-05T02:51:06;12.10;99.90
19878;DHT22;10101;52.204;9.910;2022-07-05T02:53:33;12.20;99.90
19878;DHT22;10101;52.204;9.910;2022-07-05T02:56:00;12.30;99.90
19878;DHT22;10101;52.204;9.910;2022-07-05T02:58:27;12.30;99.90
19878;DHT22;10101;52.204;9.910;2022-07-05T03:00:54;12.30;99.90
19878;DHT22;10101;52.204;9.910;2022-07-05T03:03:21;12.30;99.90
19878;DHT22;10101;52.204;9.910;2022-07-05T03:05:49;12.40;99.90
19878;DHT22;10101;52.204;9.910;2022-07-05T03:08:16;12.40;99.90
19878;DHT22;10101;52.204;9.910;2022-07-05T03:10:42;12.40;99.90
19878;DHT22;10101;52.204;9.910;2022-07-05T03:13:09;12.40;99.90
19878;DHT22;10101;52.204;9.910;2022-07-05T03:15:36;12.50;99.90
19878;DHT22;10101;52.204;9.910;2022-07-05T03:18:03;12.40;99.90
19878;DHT22;10101;52.204;9.910;2022-07-05T03:20:30;12.40;99.90
19878;DHT22;10101;52.204;9.910;2022-07-05T03:22:58;12.40;99.90
19878;DHT22;10101;52.204;9.910;2022-07-05T03:25:25;12.50;99.90
19878;DHT22;10101;52.204;9.910;2022-07-05T03:27:52;12.60;99.90
19878;DHT22;10101;52.204;9.910;2022-07-05T03:30:19;12.50;99.90
19878;DHT22;10101;52.204;9.910;2022-07-05T03:32:46;12.50;99.90
19878;DHT22;10101;52.204;9.910;2022-07-05T03:35:12;12.50;99.90
19878;DHT22;10101;52.204;9.910;2022-07-05T03:37:39;12.60;99.90
19878;DHT22;10101;52.204;9.910;2022-07-05T03:40:08;12.50;99.90
19878;DHT22;10101;52.204;9.910;2022-07-05T03:42:35;12.60;99.90
19878;DHT22;10101;52.204;9.910;2022-07-05T03:45:02;12.80;99.90
19878;DHT22;10101;52.204;9.910;2022-07-05T03:47:29;12.80;99.90
19878;DHT22;10101;52.204;9.910;2022-07-05T03:49:56;12.80;99.90
19878;DHT22;10101;52.204;9.910;2022-07-05T03:52:23;12.80;99.90
19878;DHT22;10101;52.204;9.910;2022-07-05T03:54:49;12.90;99.90
19878;DHT22;10101;52.204;9.910;2022-07-05T03:57:18;12.90;99.90
19878;DHT22;10101;52.204;9.910;2022-07-05T03:59:45;12.90;99.90
19878;DHT22;10101;52.204;9.910;2022-07-05T04:02:12;12.90;99.90
19878;DHT22;10101;52.204;9.910;2022-07-05T04:04:38;12.90;99.90
19878;DHT22;10101;52.204;9.910;2022-07-05T04:07:05;12.90;99.90
19878;DHT22;10101;52.204;9.910;2022-07-05T04:09:32;12.90;99.90
19878;DHT22;10101;52.204;9.910;2022-07-05T04:11:59;12.90;99.90
19878;DHT22;10101;52.204;9.910;2022-07-05T04:14:27;13.10;99.90
19878;DHT22;10101;52.204;9.910;2022-07-05T04:16:54;13.00;99.90
19878;DHT22;10101;52.204;9.910;2022-07-05T04:19:21;13.00;99.90
19878;DHT22;10101;52.204;9.910;2022-07-05T04:21:48;13.00;99.90
19878;DHT22;10101;52.204;9.910;2022-07-05T04:24:15;13.10;99.90
19878;DHT22;10101;52.204;9.910;2022-07-05T04:26:42;13.00;99.90
19878;DHT22;10101;52.204;9.910;2022-07-05T04:29:09;13.10;99.90
19878;DHT22;10101;52.204;9.910;2022-07-05T04:31:37;13.30;99.90
19878;DHT22;10101;52.204;9.910;2022-07-05T04:34:04;13.40;99.90
19878;DHT22;10101;52.204;9.910;2022-07-05T04:36:30;13.50;99.90
19878;DHT22;10101;52.204;9.910;2022-07-05T04:38:57;13.60;99.90
19878;DHT22;10101;52.204;9.910;2022-07-05T04:41:24;13.80;99.90
19878;DHT22;10101;52.204;9.910;2022-07-05T04:43:51;13.80;99.90
19878;DHT22;10101;52.204;9.910;2022-07-05T04:46:18;13.70;99.90
19878;DHT22;10101;52.204;9.910;2022-07-05T04:48:46;13.90;99.90
19878;DHT22;10101;52.204;9.910;2022-07-05T04:51:13;14.00;99.90
19878;DHT22;10101;52.204;9.910;2022-07-05T04:53:40;14.10;99.90
19878;DHT22;10101;52.204;9.910;2022-07-05T04:56:07;14.20;99.90
19878;DHT22;10101;52.204;9.910;2022-07-05T04:58:34;14.20;99.90
19878;DHT22;10101;52.204;9.910;2022-07-05T05:01:01;14.20;99.90
19878;DHT22;10101;52.204;9.910;2022-07-05T05:03:28;14.20;99.90
19878;DHT22;10101;52.204;9.910;2022-07-05T05:05:56;14.20;99.90
19878;DHT22;10101;52.204;9.910;2022-07-05T05:08:23;14.20;99.90
19878;DHT22;10101;52.204;9.910;2022-07-05T05:10:49;14.20;99.90
19878;DHT22;10101;52.204;9.910;2022-07-05T05:13:16;14.40;99.90
19878;DHT22;10101;52.204;9.910;2022-07-05T05:15:43;14.60;99.90
19878;DHT22;10101;52.204;9.910;2022-07-05T05:18:11;14.70;99.90
19878;DHT22;10101;52.204;9.910;2022-07-05T05:20:38;14.70;99.90
19878;DHT22;10101;52.204;9.910;2022-07-05T05:23:31;14.80;99.90
19878;DHT22;10101;52.204;9.910;2022-07-05T05:25:58;14.90;99.90
19878;DHT22;10101;52.204;9.910;2022-07-05T05:28:25;14.90;99.90
19878;DHT22;10101;52.204;9.910;2022-07-05T05:30:52;15.10;99.90
19878;DHT22;10101;52.204;9.910;2022-07-05T05:33:19;15.20;99.90
19878;DHT22;10101;52.204;9.910;2022-07-05T05:35:46;15.30;99.90
19878;DHT22;10101;52.204;9.910;2022-07-05T05:38:12;15.30;99.90
19878;DHT22;10101;52.204;9.910;2022-07-05T05:40:41;15.30;99.90
19878;DHT22;10101;52.204;9.910;2022-07-05T05:43:10;15.30;99.90
19878;DHT22;10101;52.204;9.910;2022-07-05T05:45:38;15.30;99.90
19878;DHT22;10101;52.204;9.910;2022-07-05T05:48:05;15.40;99.90
19878;DHT22;10101;52.204;9.910;2022-07-05T05:50:34;15.60;99.90
19878;DHT22;10101;52.204;9.910;2022-07-05T05:53:01;15.80;99.90
19878;DHT22;10101;52.204;9.910;2022-07-05T05:55:29;15.90;99.90
19878;DHT22;10101;52.204;9.910;2022-07-05T05:58:10;15.90;99.90
19878;DHT22;10101;52.204;9.910;2022-07-05T06:00:37;16.00;99.90
19878;DHT22;10101;52.204;9.910;2022-07-05T06:03:03;16.30;99.90
19878;DHT22;10101;52.204;9.910;2022-07-05T06:05:30;16.50;99.90
19878;DHT22;10101;52.204;9.910;2022-07-05T06:07:57;16.40;99.90
19878;DHT22;10101;52.204;9.910;2022-07-05T06:10:27;16.60;99.90
19878;DHT22;10101;52.204;9.910;2022-07-05T06:12:55;16.70;99.90
19878;DHT22;10101;52.204;9.910;2022-07-05T06:15:24;16.90;99.90
19878;DHT22;10101;52.204;9.910;2022-07-05T06:17:52;16.90;99.90
19878;DHT22;10101;52.204;9.910;2022-07-05T06:20:20;17.10;99.90
19878;DHT22;10101;52.204;9.910;2022-07-05T06:22:47;16.90;99.90
19878;DHT22;10101;52.204;9.910;2022-07-05T06:25:14;16.60;99.90
19878;DHT22;10101;52.204;9.910;2022-07-05T06:27:41;16.60;99.90
19878;DHT22;10101;52.204;9.910;2022-07-05T06:30:09;16.60;99.90
19878;DHT22;10101;52.204;9.910;2022-07-05T06:32:38;16.80;99.90
19878;DHT22;10101;52.204;9.910;2022-07-05T06:35:06;17.00;99.90
19878;DHT22;10101;52.204;9.910;2022-07-05T06:37:43;17.00;99.90
19878;DHT22;10101;52.204;9.910;2022-07-05T06:40:11;17.10;99.90
19878;DHT22;10101;52.204;9.910;2022-07-05T06:42:38;17.30;99.90
19878;DHT22;10101;52.204;9.910;2022-07-05T06:45:06;17.30;99.90
19878;DHT22;10101;52.204;9.910;2022-07-05T06:47:33;17.60;99.90
19878;DHT22;10101;52.204;9.910;2022-07-05T06:50:01;17.70;99.90
19878;DHT22;10101;52.204;9.910;2022-07-05T06:52:29;17.90;99.90
19878;DHT22;10101;52.204;9.910;2022-07-05T06:54:57;17.90;99.90
19878;DHT22;10101;52.204;9.910;2022-07-05T06:57:24;17.80;99.90
19878;DHT22;10101;52.204;9.910;2022-07-05T06:59:51;17.90;99.90
19878;DHT22;10101;52.204;9.910;2022-07-05T07:02:18;18.00;99.90
19878;DHT22;10101;52.204;9.910;2022-07-05T07:04:45;18.10;99.90
19878;DHT22;10101;52.204;9.910;2022-07-05T07:07:13;18.20;99.90
19878;DHT22;10101;52.204;9.910;2022-07-05T07:09:56;18.30;99.90
19878;DHT22;10101;52.204;9.910;2022-07-05T07:12:23;18.30;99.90
19878;DHT22;10101;52.204;9.910;2022-07-05T07:14:50;18.30;99.90
19878;DHT22;10101;52.204;9.910;2022-07-05T07:17:17;18.40;99.90
19878;DHT22;10101;52.204;9.910;2022-07-05T07:19:44;18.60;99.90
19878;DHT22;10101;52.204;9.910;2022-07-05T07:22:10;18.90;99.90
19878;DHT22;10101;52.204;9.910;2022-07-05T07:24:39;19.00;99.90
19878;DHT22;10101;52.204;9.910;2022-07-05T07:27:05;18.80;80.90
19878;DHT22;10101;52.204;9.910;2022-07-05T07:29:34;18.90;99.90
19878;DHT22;10101;52.204;9.910;2022-07-05T07:32:02;19.10;1.00
19878;DHT22;10101;52.204;9.910;2022-07-05T07:34:30;19.10;1.00
19878;DHT22;10101;52.204;9.910;2022-07-05T07:36:57;19.30;99.90
19878;DHT22;10101;52.204;9.910;2022-07-05T07:39:25;19.30;9.10
19878;DHT22;10101;52.204;9.910;2022-07-05T07:41:53;19.50;1.00
19878;DHT22;10101;52.204;9.910;2022-07-05T07:44:20;19.50;99.90
19878;DHT22;10101;52.204;9.910;2022-07-05T07:46:47;19.40;1.00
19878;DHT22;10101;52.204;9.910;2022-07-05T07:49:14;19.70;1.00
19878;DHT22;10101;52.204;9.910;2022-07-05T07:51:41;19.90;1.00
19878;DHT22;10101;52.204;9.910;2022-07-05T07:54:08;20.00;99.90
19878;DHT22;10101;52.204;9.910;2022-07-05T07:56:35;20.30;99.90
19878;DHT22;10101;52.204;9.910;2022-07-05T07:59:03;19.90;1.00
19878;DHT22;10101;52.204;9.910;2022-07-05T08:01:29;20.10;1.00
19878;DHT22;10101;52.204;9.910;2022-07-05T08:03:57;20.20;1.00
19878;DHT22;10101;52.204;9.910;2022-07-05T08:06:24;20.60;1.00
19878;DHT22;10101;52.204;9.910;2022-07-05T08:08:51;20.20;1.00
19878;DHT22;10101;52.204;9.910;2022-07-05T08:11:17;20.10;1.00
19878;DHT22;10101;52.204;9.910;2022-07-05T08:13:44;19.90;99.90
19878;DHT22;10101;52.204;9.910;2022-07-05T08:16:14;20.00;99.90
19878;DHT22;10101;52.204;9.910;2022-07-05T08:18:41;20.40;99.90
19878;DHT22;10101;52.204;9.910;2022-07-05T08:21:25;20.30;99.90
19878;DHT22;10101;52.204;9.910;2022-07-05T08:24:03;20.10;49.00
19878;DHT22;10101;52.204;9.910;2022-07-05T08:26:30;20.10;5.20
19878;DHT22;10101;52.204;9.910;2022-07-05T08:28:57;20.30;1.00
19878;DHT22;10101;52.204;9.910;2022-07-05T08:31:26;20.50;1.00
19878;DHT22;10101;52.204;9.910;2022-07-05T08:33:53;20.50;1.00
19878;DHT22;10101;52.204;9.910;2022-07-05T08:36:20;20.70;1.00
19878;DHT22;10101;52.204;9.910;2022-07-05T08:38:47;21.00;1.00
19878;DHT22;10101;52.204;9.910;2022-07-05T08:41:17;21.00;1.00
19878;DHT22;10101;52.204;9.910;2022-07-05T08:43:45;20.50;1.00
19878;DHT22;10101;52.204;9.910;2022-07-05T08:46:14;20.50;1.00
19878;DHT22;10101;52.204;9.910;2022-07-05T08:48:44;20.30;1.00
19878;DHT22;10101;52.204;9.910;2022-07-05T08:51:14;20.60;1.00
19878;DHT22;10101;52.204;9.910;2022-07-05T08:53:43;21.30;1.00
19878;DHT22;10101;52.204;9.910;2022-07-05T08:56:11;20.80;1.00
19878;DHT22;10101;52.204;9.910;2022-07-05T08:58:39;21.20;1.00
19878;DHT22;10101;52.204;9.910;2022-07-05T09:01:07;21.00;1.00
19878;DHT22;10101;52.204;9.910;2022-07-05T09:03:38;21.30;99.90
19878;DHT22;10101;52.204;9.910;2022-07-05T09:06:11;21.30;99.90
19878;DHT22;10101;52.204;9.910;2022-07-05T09:08:39;21.60;99.90
19878;DHT22;10101;52.204;9.910;2022-07-05T09:11:07;21.90;99.90
19878;DHT22;10101;52.204;9.910;2022-07-05T09:13:35;21.50;99.90
19878;DHT22;10101;52.204;9.910;2022-07-05T09:16:02;21.40;99.90
19878;DHT22;10101;52.204;9.910;2022-07-05T09:18:40;21.60;99.90
19878;DHT22;10101;52.204;9.910;2022-07-05T09:21:16;21.60;99.90
19878;DHT22;10101;52.204;9.910;2022-07-05T09:23:43;21.60;99.90
19878;DHT22;10101;52.204;9.910;2022-07-05T09:26:10;21.30;99.90
19878;DHT22;10101;52.204;9.910;2022-07-05T09:28:37;21.10;92.00
19878;DHT22;10101;52.204;9.910;2022-07-05T09:31:05;21.20;51.10
19878;DHT22;10101;52.204;9.910;2022-07-05T09:33:31;21.30;5.10
19878;DHT22;10101;52.204;9.910;2022-07-05T09:35:58;21.30;1.00
19878;DHT22;10101;52.204;9.910;2022-07-05T09:38:28;21.50;1.00
19878;DHT22;10101;52.204;9.910;2022-07-05T09:40:57;21.40;1.00
19878;DHT22;10101;52.204;9.910;2022-07-05T09:43:25;20.80;1.00
19878;DHT22;10101;52.204;9.910;2022-07-05T09:45:53;21.00;1.00
19878;DHT22;10101;52.204;9.910;2022-07-05T09:48:21;21.50;1.00
19878;DHT22;10101;52.204;9.910;2022-07-05T09:50:48;22.00;1.00
19878;DHT22;10101;52.204;9.910;2022-07-05T09:53:15;21.80;1.00
19878;DHT22;10101;52.204;9.910;2022-07-05T09:58:30;21.80;1.00
19878;DHT22;10101;52.204;9.910;2022-07-05T10:00:57;21.80;1.00
19878;DHT22;10101;52.204;9.910;2022-07-05T10:03:24;21.60;1.00
19878;DHT22;10101;52.204;9.910;2022-07-05T10:05:51;22.00;1.00
19878;DHT22;10101;52.204;9.910;2022-07-05T10:08:20;21.50;1.00
19878;DHT22;10101;52.204;9.910;2022-07-05T10:10:51;21.10;99.90
19878;DHT22;10101;52.204;9.910;2022-07-05T10:13:18;21.30;99.90
19878;DHT22;10101;52.204;9.910;2022-07-05T10:15:45;21.60;99.90
19878;DHT22;10101;52.204;9.910;2022-07-05T10:18:13;21.60;99.90
19878;DHT22;10101;52.204;9.910;2022-07-05T10:20:44;21.30;99.90
19878;DHT22;10101;52.204;9.910;2022-07-05T10:23:12;21.00;99.90
19878;DHT22;10101;52.204;9.910;2022-07-05T10:25:41;21.10;99.90
19878;DHT22;10101;52.204;9.910;2022-07-05T10:28:10;21.20;99.90
19878;DHT22;10101;52.204;9.910;2022-07-05T10:30:37;21.20;99.90
19878;DHT22;10101;52.204;9.910;2022-07-05T10:33:06;21.10;99.90
19878;DHT22;10101;52.204;9.910;2022-07-05T10:35:34;21.40;99.90
19878;DHT22;10101;52.204;9.910;2022-07-05T10:38:01;21.80;99.90
19878;DHT22;10101;52.204;9.910;2022-07-05T10:40:30;21.90;99.90
19878;DHT22;10101;52.204;9.910;2022-07-05T10:42:59;21.50;99.90
19878;DHT22;10101;52.204;9.910;2022-07-05T10:45:29;21.60;99.90
19878;DHT22;10101;52.204;9.910;2022-07-05T10:48:16;21.80;99.90
19878;DHT22;10101;52.204;9.910;2022-07-05T10:50:44;21.90;90.30
19878;DHT22;10101;52.204;9.910;2022-07-05T10:53:11;21.70;42.10
19878;DHT22;10101;52.204;9.910;2022-07-05T10:55:53;21.80;19.10
19878;DHT22;10101;52.204;9.910;2022-07-05T10:58:23;22.20;8.30
19878;DHT22;10101;52.204;9.910;2022-07-05T11:03:53;21.80;1.00
19878;DHT22;10101;52.204;9.910;2022-07-05T11:06:23;21.80;1.00
19878;DHT22;10101;52.204;9.910;2022-07-05T11:09:16;22.40;1.00
19878;DHT22;10101;52.204;9.910;2022-07-05T11:11:44;22.10;1.00
19878;DHT22;10101;52.204;9.910;2022-07-05T11:17:23;22.10;1.00
19878;DHT22;10101;52.204;9.910;2022-07-05T11:20:14;22.40;1.00
19878;DHT22;10101;52.204;9.910;2022-07-05T11:25:28;21.80;1.00
19878;DHT22;10101;52.204;9.910;2022-07-05T11:28:06;22.30;1.00
19878;DHT22;10101;52.204;9.910;2022-07-05T11:31:03;22.40;1.00
19878;DHT22;10101;52.204;9.910;2022-07-05T11:33:34;21.80;1.00
19878;DHT22;10101;52.204;9.910;2022-07-05T11:36:04;21.70;1.00
19878;DHT22;10101;52.204;9.910;2022-07-05T11:38:32;22.20;1.00
19878;DHT22;10101;52.204;9.910;2022-07-05T11:41:12;22.00;1.00
19878;DHT22;10101;52.204;9.910;2022-07-05T11:43:40;22.20;1.00
19878;DHT22;10101;52.204;9.910;2022-07-05T11:46:07;22.50;1.00
19878;DHT22;10101;52.204;9.910;2022-07-05T11:48:34;22.30;1.00
19878;DHT22;10101;52.204;9.910;2022-07-05T11:51:14;22.40;1.00
19878;DHT22;10101;52.204;9.910;2022-07-05T11:53:41;22.30;1.00
19878;DHT22;10101;52.204;9.910;2022-07-05T11:56:09;22.20;1.00
19878;DHT22;10101;52.204;9.910;2022-07-05T11:58:41;21.90;1.00
19878;DHT22;10101;52.204;9.910;2022-07-05T12:01:16;21.90;1.00
19878;DHT22;10101;52.204;9.910;2022-07-05T12:03:52;22.60;1.00
19878;DHT22;10101;52.204;9.910;2022-07-05T12:06:22;22.70;1.00
19878;DHT22;10101;52.204;9.910;2022-07-05T12:09:03;22.80;1.00
19878;DHT22;10101;52.204;9.910;2022-07-05T12:11:31;22.80;1.00
19878;DHT22;10101;52.204;9.910;2022-07-05T12:14:21;22.80;1.00
19878;DHT22;10101;52.204;9.910;2022-07-05T12:16:49;22.90;1.00
19878;DHT22;10101;52.204;9.910;2022-07-05T12:19:25;23.20;1.00
19878;DHT22;10101;52.204;9.910;2022-07-05T12:21:54;22.90;1.00
19878;DHT22;10101;52.204;9.910;2022-07-05T12:24:21;22.50;1.00
19878;DHT22;10101;52.204;9.910;2022-07-05T12:26:50;22.40;1.00
19878;DHT22;10101;52.204;9.910;2022-07-05T12:29:17;23.00;1.00
19878;DHT22;10101;52.204;9.910;2022-07-05T12:32:01;23.20;1.00
19878;DHT22;10101;52.204;9.910;2022-07-05T12:34:29;22.90;1.00
19878;DHT22;10101;52.204;9.910;2022-07-05T12:36:57;23.40;1.00
19878;DHT22;10101;52.204;9.910;2022-07-05T12:39:24;23.60;1.00
19878;DHT22;10101;52.204;9.910;2022-07-05T12:41:51;23.30;99.90
19878;DHT22;10101;52.204;9.910;2022-07-05T12:44:19;23.50;99.90
19878;DHT22;10101;52.204;9.910;2022-07-05T12:46:46;23.40;99.90
19878;DHT22;10101;52.204;9.910;2022-07-05T12:49:15;22.90;99.90
19878;DHT22;10101;52.204;9.910;2022-07-05T12:51:43;22.70;99.90
19878;DHT22;10101;52.204;9.910;2022-07-05T12:54:21;22.80;99.90
19878;DHT22;10101;52.204;9.910;2022-07-05T12:57:05;23.10;99.90
19878;DHT22;10101;52.204;9.910;2022-07-05T13:00:00;23.70;99.90
19878;DHT22;10101;52.204;9.910;2022-07-05T13:02:36;24.00;99.90
19878;DHT22;10101;52.204;9.910;2022-07-05T13:05:04;24.10;99.90
19878;DHT22;10101;52.204;9.910;2022-07-05T13:07:31;23.90;99.90
19878;DHT22;10101;52.204;9.910;2022-07-05T13:12:51;23.20;99.90
19878;DHT22;10101;52.204;9.910;2022-07-05T13:15:18;23.90;99.90
19878;DHT22;10101;52.204;9.910;2022-07-05T13:17:45;24.10;99.90
19878;DHT22;10101;52.204;9.910;2022-07-05T13:20:13;23.70;99.90
19878;DHT22;10101;52.204;9.910;2022-07-05T13:22:42;24.00;99.90
19878;DHT22;10101;52.204;9.910;2022-07-05T13:25:09;24.40;99.90
19878;DHT22;10101;52.204;9.910;2022-07-05T13:27:37;24.90;99.90
19878;DHT22;10101;52.204;9.910;2022-07-05T13:30:06;25.50;99.90
19878;DHT22;10101;52.204;9.910;2022-07-05T13:32:33;24.80;99.90
19878;DHT22;10101;52.204;9.910;2022-07-05T13:35:00;25.00;99.90
19878;DHT22;10101;52.204;9.910;2022-07-05T13:37:27;25.20;99.90
19878;DHT22;10101;52.204;9.910;2022-07-05T13:39:54;25.00;99.90
19878;DHT22;10101;52.204;9.910;2022-07-05T13:42:21;25.30;99.90
19878;DHT22;10101;52.204;9.910;2022-07-05T13:44:48;25.00;99.90
19878;DHT22;10101;52.204;9.910;2022-07-05T13:47:16;25.20;99.90
19878;DHT22;10101;52.204;9.910;2022-07-05T13:49:43;25.20;99.90
19878;DHT22;10101;52.204;9.910;2022-07-05T13:52:09;25.50;99.90
19878;DHT22;10101;52.204;9.910;2022-07-05T13:54:36;25.00;99.90
19878;DHT22;10101;52.204;9.910;2022-07-05T13:57:04;24.60;99.90
19878;DHT22;10101;52.204;9.910;2022-07-05T13:59:30;24.40;99.90
19878;DHT22;10101;52.204;9.910;2022-07-05T14:01:57;23.90;99.90
19878;DHT22;10101;52.204;9.910;2022-07-05T14:04:25;24.60;99.90
19878;DHT22;10101;52.204;9.910;2022-07-05T14:06:55;25.30;99.90
19878;DHT22;10101;52.204;9.910;2022-07-05T14:09:22;25.30;99.90
19878;DHT22;10101;52.204;9.910;2022-07-05T14:11:51;25.80;99.90
19878;DHT22;10101;52.204;9.910;2022-07-05T14:14:17;26.20;99.90
19878;DHT22;10101;52.204;9.910;2022-07-05T14:16:44;26.00;99.90
19878;DHT22;10101;52.204;9.910;2022-07-05T14:19:11;25.90;99.90
19878;DHT22;10101;52.204;9.910;2022-07-05T14:21:39;26.30;99.90
19878;DHT22;10101;52.204;9.910;2022-07-05T14:24:10;26.10;99.90
19878;DHT22;10101;52.204;9.910;2022-07-05T14:26:38;25.70;99.90
19878;DHT22;10101;52.204;9.910;2022-07-05T14:29:06;26.60;99.90
19878;DHT22;10101;52.204;9.910;2022-07-05T14:31:33;26.40;99.90
19878;DHT22;10101;52.204;9.910;2022-07-05T14:34:00;26.50;99.90
19878;DHT22;10101;52.204;9.910;2022-07-05T14:36:27;26.50;99.90
19878;DHT22;10101;52.204;9.910;2022-07-05T14:38:55;25.90;99.90
19878;DHT22;10101;52.204;9.910;2022-07-05T14:41:23;26.60;99.90
19878;DHT22;10101;52.204;9.910;2022-07-05T14:43:50;27.30;99.90
19878;DHT22;10101;52.204;9.910;2022-07-05T14:46:19;26.00;99.90
19878;DHT22;10101;52.204;9.910;2022-07-05T14:48:46;26.40;99.90
19878;DHT22;10101;52.204;9.910;2022-07-05T14:51:13;26.10;99.90
19878;DHT22;10101;52.204;9.910;2022-07-05T14:53:40;26.70;99.90
19878;DHT22;10101;52.204;9.910;2022-07-05T14:56:09;26.90;99.90
19878;DHT22;10101;52.204;9.910;2022-07-05T14:58:36;26.60;99.90
19878;DHT22;10101;52.204;9.910;2022-07-05T15:01:03;27.00;99.90
19878;DHT22;10101;52.204;9.910;2022-07-05T15:03:30;26.30;99.90
19878;DHT22;10101;52.204;9.910;2022-07-05T15:05:57;26.80;99.90
19878;DHT22;10101;52.204;9.910;2022-07-05T15:08:24;26.70;99.90
19878;DHT22;10101;52.204;9.910;2022-07-05T15:10:53;26.20;99.90
19878;DHT22;10101;52.204;9.910;2022-07-05T15:13:21;25.80;99.90
19878;DHT22;10101;52.204;9.910;2022-07-05T15:15:50;25.90;99.90
19878;DHT22;10101;52.204;9.910;2022-07-05T15:18:17;26.50;99.90
19878;DHT22;10101;52.204;9.910;2022-07-05T15:20:45;28.20;99.90
19878;DHT22;10101;52.204;9.910;2022-07-05T15:23:11;27.10;99.90
19878;DHT22;10101;52.204;9.910;2022-07-05T15:25:38;26.80;99.90
19878;DHT22;10101;52.204;9.910;2022-07-05T15:28:05;27.10;99.90
19878;DHT22;10101;52.204;9.910;2022-07-05T15:30:37;27.70;99.90
19878;DHT22;10101;52.204;9.910;2022-07-05T15:33:05;27.80;99.90
19878;DHT22;10101;52.204;9.910;2022-07-05T15:35:33;28.70;99.90
19878;DHT22;10101;52.204;9.910;2022-07-05T15:37:59;28.70;99.90
19878;DHT22;10101;52.204;9.910;2022-07-05T15:40:26;29.00;99.90
19878;DHT22;10101;52.204;9.910;2022-07-05T15:42:54;28.40;99.90
19878;DHT22;10101;52.204;9.910;2022-07-05T15:45:21;27.10;99.90
19878;DHT22;10101;52.204;9.910;2022-07-05T15:47:49;27.50;99.90
19878;DHT22;10101;52.204;9.910;2022-07-05T15:50:16;28.20;99.90
19878;DHT22;10101;52.204;9.910;2022-07-05T15:52:43;27.60;99.90
19878;DHT22;10101;52.204;9.910;2022-07-05T15:55:09;26.70;99.90
19878;DHT22;10101;52.204;9.910;2022-07-05T15:57:37;26.20;99.90